Time;durP1;ratioP1;P1;durP2;ratioP2;P2;SDS_P1;SDS_P2;PMS_P1;PMS_P2;Temp;Humidity;BMP_temperature;BMP_pressure;BME280_temperature;BME280_humidity;BME280_pressure;Samples;Min_cycle;Max_cycle;Signal;HPM_P1;HPM_P2
2022/07/01 00:01:45;;;;;;;;;0.00;0.00;;;;;14.82;68.06;100828.06;5096358;27;45500;-80
2022/07/01 00:04:11;;;;;;;;;2.00;0.75;;;;;14.75;68.54;100830.94;5094491;27;45609;-81
2022/07/01 00:06:37;;;;;;;;;0.25;0.00;;;;;14.80;68.65;100837.91;5084974;27;45506;-81
2022/07/01 00:09:04;;;;;;;;;0.00;0.00;;;;;14.81;68.49;100848.47;5109890;27;45485;-82
2022/07/01 00:11:30;;;;;;;;;1.00;0.00;;;;;14.79;68.66;100853.00;5097456;27;45426;-81
2022/07/01 00:13:56;;;;;;;;;1.00;1.00;;;;;14.63;68.87;100828.69;5095347;27;45476;-81
2022/07/01 00:16:21;;;;;;;;;0.00;0.00;;;;;14.66;68.75;100839.22;5095834;27;45442;-81
2022/07/01 00:18:47;;;;;;;;;0.00;0.00;;;;;14.61;68.71;100835.84;5097497;27;45497;-81
2022/07/01 00:21:12;;;;;;;;;0.00;0.00;;;;;14.62;68.61;100853.56;5098179;27;45627;-82
2022/07/01 00:23:37;;;;;;;;;0.00;0.00;;;;;14.43;69.18;100825.78;5094583;27;45596;-80
2022/07/01 00:26:03;;;;;;;;;0.00;0.00;;;;;14.56;69.62;100853.69;5095977;27;46228;-81
2022/07/01 00:28:29;;;;;;;;;0.00;0.00;;;;;14.50;69.36;100849.47;5094654;27;45397;-81
2022/07/01 00:30:54;;;;;;;;;0.00;0.00;;;;;14.49;69.52;100849.50;5095709;27;45373;-80
2022/07/01 00:33:19;;;;;;;;;0.00;0.00;;;;;14.34;69.31;100841.09;5094712;27;45608;-77
2022/07/01 00:35:45;;;;;;;;;2.50;2.50;;;;;14.45;69.55;100866.47;5095395;27;45329;-77
2022/07/01 00:38:10;;;;;;;;;2.50;2.00;;;;;14.45;70.05;100862.00;5091641;27;45522;-78
2022/07/01 00:40:36;;;;;;;;;6.75;3.00;;;;;14.40;69.82;100864.81;5075773;27;45561;-76
2022/07/01 00:43:02;;;;;;;;;0.75;0.00;;;;;14.37;69.93;100862.25;5097643;27;45316;-77
2022/07/01 00:45:27;;;;;;;;;0.00;0.00;;;;;14.33;70.07;100857.09;5096599;27;46528;-77
2022/07/01 00:47:53;;;;;;;;;0.00;0.00;;;;;14.28;69.79;100849.25;5095319;27;45381;-77
2022/07/01 00:50:18;;;;;;;;;0.00;0.00;;;;;14.28;70.21;100859.03;5095324;27;45484;-77
2022/07/01 00:52:45;;;;;;;;;1.25;0.00;;;;;14.30;70.25;100879.34;5095819;27;45426;-76
2022/07/01 00:55:12;;;;;;;;;1.50;0.25;;;;;14.22;70.15;100860.06;5097329;27;45497;-78
2022/07/01 00:57:39;;;;;;;;;0.00;0.00;;;;;14.24;70.79;100868.88;5095856;27;45361;-77
2022/07/01 01:00:11;;;;;;;;;0.00;0.00;;;;;14.24;70.25;100874.19;5095636;27;45504;-76
2022/07/01 01:02:37;;;;;;;;;0.00;0.00;;;;;14.18;70.64;100867.28;5095151;27;45636;-81
2022/07/01 01:05:04;;;;;;;;;0.00;0.00;;;;;14.19;70.94;100878.78;5096530;27;45426;-78
2022/07/01 01:07:31;;;;;;;;;0.00;0.00;;;;;14.16;71.10;100868.25;5096740;27;45405;-77
2022/07/01 01:10:04;;;;;;;;;1.00;0.00;;;;;14.12;71.44;100864.81;5096658;27;45275;-76
2022/07/01 01:12:29;;;;;;;;;0.00;0.00;;;;;14.09;71.39;100866.69;5095772;27;45551;-78
2022/07/01 01:14:57;;;;;;;;;0.00;0.00;;;;;14.14;71.75;100872.75;5094725;27;45340;-78
2022/07/01 01:17:23;;;;;;;;;0.00;0.00;;;;;14.10;72.13;100876.41;5095873;27;45442;-78
2022/07/01 01:19:50;;;;;;;;;0.00;0.00;;;;;14.02;72.28;100873.97;5095852;27;45479;-78
2022/07/01 01:22:17;;;;;;;;;0.00;0.00;;;;;14.06;71.65;100886.25;5095334;27;45410;-80
2022/07/01 01:24:44;;;;;;;;;0.00;0.00;;;;;14.07;71.65;100897.75;5097645;27;45442;-81
2022/07/01 01:27:10;;;;;;;;;0.00;0.00;;;;;13.99;72.12;100882.03;5096509;27;45375;-80
2022/07/01 01:29:37;;;;;;;;;1.25;0.75;;;;;14.04;72.04;100894.28;5075543;27;45557;-81
2022/07/01 01:32:04;;;;;;;;;0.75;0.50;;;;;13.98;72.97;100894.47;5094055;27;45627;-76
2022/07/01 01:34:29;;;;;;;;;0.00;0.00;;;;;13.97;72.22;100900.69;5075389;27;45712;-77
2022/07/01 01:36:55;;;;;;;;;0.00;0.00;;;;;13.90;72.58;100890.28;5095897;27;45472;-77
2022/07/01 01:39:20;;;;;;;;;0.00;0.00;;;;;13.95;73.07;100897.22;5112126;27;45409;-77
2022/07/01 01:41:47;;;;;;;;;1.25;0.00;;;;;13.89;72.99;100889.38;5095384;27;45508;-78
2022/07/01 01:44:13;;;;;;;;;0.00;0.00;;;;;13.89;72.87;100885.88;5082398;27;45672;-77
2022/07/01 01:46:38;;;;;;;;;0.00;0.00;;;;;13.95;72.55;100894.56;5093987;27;45524;-77
2022/07/01 01:49:05;;;;;;;;;0.00;0.00;;;;;13.94;72.59;100890.16;5095334;27;45851;-77
2022/07/01 01:51:32;;;;;;;;;0.25;0.00;;;;;13.92;73.06;100894.63;5096141;27;45675;-78
2022/07/01 01:53:59;;;;;;;;;0.00;0.00;;;;;13.83;73.21;100879.84;5094100;27;46126;-78
2022/07/01 01:56:25;;;;;;;;;0.25;0.25;;;;;13.85;73.25;100887.75;5090451;27;45410;-77
2022/07/01 01:58:50;;;;;;;;;0.00;0.00;;;;;13.88;73.52;100902.72;5075128;27;45529;-78
2022/07/01 02:01:18;;;;;;;;;0.00;0.00;;;;;13.85;73.64;100893.06;5076528;27;45385;-77
2022/07/01 02:03:46;;;;;;;;;0.00;0.00;;;;;13.88;74.09;100906.25;5094347;27;45433;-80
2022/07/01 02:06:13;;;;;;;;;0.00;0.00;;;;;13.80;73.45;100900.28;5092938;27;45366;-81
2022/07/01 02:08:39;;;;;;;;;0.25;0.25;;;;;13.78;73.54;100896.81;5101477;27;45515;-77
2022/07/01 02:11:05;;;;;;;;;0.00;0.00;;;;;13.86;73.58;100916.03;5095064;27;45475;-77
2022/07/01 02:13:31;;;;;;;;;1.00;0.00;;;;;13.76;73.73;100888.88;5093122;27;45500;-77
2022/07/01 02:15:56;;;;;;;;;0.00;0.00;;;;;13.82;73.52;100911.75;5095014;27;45540;-77
2022/07/01 02:18:22;;;;;;;;;0.00;0.00;;;;;13.85;73.55;100914.31;5094925;27;45524;-77
2022/07/01 02:20:48;;;;;;;;;0.00;0.00;;;;;13.82;73.37;100909.09;5094070;27;45415;-77
2022/07/01 02:23:14;;;;;;;;;0.00;0.00;;;;;13.80;73.15;100917.13;5094316;27;45514;-78
2022/07/01 02:25:40;;;;;;;;;1.00;0.00;;;;;13.70;73.48;100905.00;5095628;27;45490;-76
2022/07/01 02:28:05;;;;;;;;;1.00;0.00;;;;;13.71;73.32;100909.41;5094807;27;45423;-79
2022/07/01 02:30:35;;;;;;;;;0.25;0.25;;;;;13.73;72.73;100922.63;5095721;27;45421;-80
2022/07/01 02:33:00;;;;;;;;;0.25;0.00;;;;;13.75;72.75;100923.47;5093369;27;46262;-81
2022/07/01 02:35:25;;;;;;;;;1.00;1.00;;;;;13.75;72.87;100928.78;5094512;27;45404;-79
2022/07/01 02:37:51;;;;;;;;;0.00;0.00;;;;;13.74;73.10;100925.25;5095755;27;45501;-80
2022/07/01 02:40:16;;;;;;;;;0.00;0.00;;;;;13.72;72.42;100927.06;5095547;27;45484;-80
2022/07/01 02:42:42;;;;;;;;;0.00;0.00;;;;;13.70;72.95;100936.88;5093011;27;47126;-80
2022/07/01 02:45:10;;;;;;;;;0.00;0.00;;;;;13.63;73.10;100930.84;5094859;27;45385;-80
2022/07/01 02:47:38;;;;;;;;;0.00;0.00;;;;;13.67;72.64;100935.16;5095879;27;45296;-80
2022/07/01 02:50:04;;;;;;;;;0.00;0.00;;;;;13.62;72.73;100938.84;5096607;27;45393;-79
2022/07/01 02:52:30;;;;;;;;;0.00;0.00;;;;;13.62;72.43;100937.06;5094825;27;46776;-81
2022/07/01 02:54:55;;;;;;;;;0.00;0.00;;;;;13.19;72.68;100876.25;5092155;27;45469;-77
2022/07/01 02:57:21;;;;;;;;;0.00;0.00;;;;;13.41;72.60;100908.44;5093566;27;45377;-77
2022/07/01 02:59:47;;;;;;;;;2.75;0.00;;;;;13.57;72.88;100949.59;5092992;27;45607;-77
2022/07/01 03:02:12;;;;;;;;;0.00;0.00;;;;;13.37;72.66;100918.25;5090364;27;45731;-81
2022/07/01 03:04:38;;;;;;;;;0.00;0.00;;;;;13.49;72.49;100933.00;5091345;27;45468;-81
2022/07/01 03:07:03;;;;;;;;;0.00;0.00;;;;;13.48;72.45;100936.56;5095797;27;45404;-81
2022/07/01 03:09:28;;;;;;;;;0.25;0.00;;;;;13.47;72.87;100934.84;5097205;27;45381;-81
2022/07/01 03:11:54;;;;;;;;;0.00;0.00;;;;;13.45;72.72;100931.31;5093013;27;46224;-80
2022/07/01 03:14:19;;;;;;;;;0.75;0.00;;;;;13.45;72.78;100937.53;5084773;27;45566;-80
2022/07/01 03:16:47;;;;;;;;;0.00;0.00;;;;;13.41;72.88;100929.69;5074537;27;45333;-79
2022/07/01 03:19:12;;;;;;;;;0.00;0.00;;;;;13.46;73.55;100947.22;5074350;27;45328;-81
2022/07/01 03:21:38;;;;;;;;;0.00;0.00;;;;;13.40;73.13;100936.75;5091301;27;45728;-80
2022/07/01 03:24:03;;;;;;;;;0.25;0.25;;;;;13.46;73.35;100954.31;5092570;27;45398;-80
2022/07/01 03:26:28;;;;;;;;;0.75;0.75;;;;;13.42;72.83;100950.00;5079102;27;45556;-81
2022/07/01 03:28:54;;;;;;;;;0.75;0.75;;;;;13.41;72.84;100953.59;5078610;27;45257;-81
2022/07/01 03:31:19;;;;;;;;;1.00;1.00;;;;;13.41;72.42;100954.44;5074549;27;45553;-80
2022/07/01 03:33:45;;;;;;;;;0.00;0.00;;;;;13.37;72.75;100941.28;5078466;27;45562;-80
2022/07/01 03:36:10;;;;;;;;;1.25;1.25;;;;;13.40;72.87;100957.13;5091909;27;45455;-80
2022/07/01 03:38:35;;;;;;;;;0.00;0.00;;;;;13.42;73.03;100955.31;5095257;27;45444;-81
2022/07/01 03:41:01;;;;;;;;;3.25;1.00;;;;;13.39;72.74;100958.03;5094232;27;45363;-80
2022/07/01 03:43:26;;;;;;;;;1.50;1.50;;;;;13.30;72.55;100954.69;5093440;27;45514;-80
2022/07/01 03:45:51;;;;;;;;;1.75;1.00;;;;;13.36;72.48;100974.03;5095036;27;45430;-80
2022/07/01 03:48:17;;;;;;;;;1.00;1.00;;;;;13.37;72.88;100973.16;5097705;27;45652;-81
2022/07/01 03:50:42;;;;;;;;;1.25;1.25;;;;;13.32;72.75;100967.91;5095488;27;45389;-81
2022/07/01 03:55:51;;;;;;;;;1.00;1.00;;;;;13.30;73.01;100975.03;5073927;28;45470;-81
2022/07/01 03:58:17;;;;;;;;;1.25;1.00;;;;;13.31;72.75;100975.00;5092689;27;45383;-81
2022/07/01 04:00:42;;;;;;;;;1.00;1.00;;;;;13.32;72.67;100968.78;5096643;27;45533;-81
2022/07/01 04:03:07;;;;;;;;;2.00;1.00;;;;;13.26;72.80;100963.63;5111378;27;44844;-80
2022/07/01 04:05:34;;;;;;;;;1.00;1.00;;;;;13.29;72.34;100974.16;5100250;27;45918;-77
2022/07/01 04:08:00;;;;;;;;;1.00;1.00;;;;;13.28;72.52;100977.72;5093623;27;45492;-77
2022/07/01 04:10:25;;;;;;;;;1.75;1.75;;;;;13.25;72.78;100980.47;5093253;27;47135;-76
2022/07/01 04:12:51;;;;;;;;;2.75;2.00;;;;;13.37;72.56;100999.69;5098036;27;45426;-81
2022/07/01 04:15:17;;;;;;;;;1.00;1.00;;;;;13.39;72.39;100995.22;5097883;27;45300;-80
2022/07/01 04:17:43;;;;;;;;;4.25;2.75;;;;;13.37;72.27;100981.09;5092115;27;45492;-81
2022/07/01 04:20:08;;;;;;;;;3.75;3.75;;;;;13.40;71.96;100975.72;5092971;27;46254;-80
2022/07/01 04:22:35;;;;;;;;;1.00;1.00;;;;;13.64;71.50;100966.25;5098247;27;45469;-81
2022/07/01 04:25:06;;;;;;;;;5.00;2.00;;;;;14.30;70.18;100987.47;5094500;27;45451;-81
2022/07/01 04:27:31;;;;;;;;;0.50;0.50;;;;;14.79;68.62;100979.81;5097460;27;45378;-81
2022/07/01 04:29:57;;;;;;;;;2.00;2.00;;;;;15.41;66.67;100998.25;5097296;27;45463;-82
2022/07/01 04:32:23;;;;;;;;;2.00;2.00;;;;;15.92;65.19;100992.97;5097054;27;45478;-81
2022/07/01 04:34:48;;;;;;;;;1.75;1.75;;;;;16.43;62.61;100991.13;5092591;27;45508;-80
2022/07/01 04:37:14;;;;;;;;;1.25;0.00;;;;;16.99;61.59;100987.19;5097473;27;45534;-81
2022/07/01 04:39:39;;;;;;;;;1.00;1.00;;;;;17.58;59.61;100990.97;5100013;27;45400;-81
2022/07/01 04:42:05;;;;;;;;;4.00;1.00;;;;;17.93;58.21;100949.41;5100274;27;45407;-80
2022/07/01 04:44:32;;;;;;;;;1.00;1.00;;;;;18.66;56.21;100991.56;5099052;27;45501;-80
2022/07/01 04:46:58;;;;;;;;;3.00;1.75;;;;;19.25;55.00;100989.63;5082798;27;45549;-80
2022/07/01 04:49:24;;;;;;;;;1.00;1.00;;;;;19.79;53.44;100989.59;5075714;28;45461;-80
2022/07/01 04:51:50;;;;;;;;;1.00;1.00;;;;;20.22;51.74;100989.13;5082974;27;45419;-81
2022/07/01 04:54:15;;;;;;;;;3.00;2.00;;;;;20.61;50.30;100993.28;5097187;27;45441;-77
2022/07/01 04:56:41;;;;;;;;;1.00;1.00;;;;;21.14;49.24;101003.81;5096380;27;45363;-78
2022/07/01 04:59:06;;;;;;;;;0.00;0.00;;;;;21.58;48.07;100989.63;5098083;27;45992;-77
2022/07/01 05:01:32;;;;;;;;;2.25;2.25;;;;;22.09;46.84;100987.41;5097895;27;45570;-79
2022/07/01 05:03:58;;;;;;;;;0.00;0.00;;;;;22.55;46.14;100997.13;5094928;27;45685;-77
2022/07/01 05:06:23;;;;;;;;;2.00;1.00;;;;;23.09;45.05;100995.47;5096744;27;45548;-77
2022/07/01 05:08:49;;;;;;;;;1.50;1.00;;;;;23.47;43.61;101001.00;5095918;27;46368;-78
2022/07/01 05:11:14;;;;;;;;;1.00;1.00;;;;;23.81;42.69;101004.13;5097303;27;45383;-77
2022/07/01 05:13:39;;;;;;;;;1.00;1.00;;;;;24.24;41.85;101000.28;5094779;27;45318;-78
2022/07/01 05:16:06;;;;;;;;;1.00;0.00;;;;;24.77;40.91;100992.00;5095711;27;46033;-77
2022/07/01 05:24:00;;;;;;;;;0.25;0.25;;;;;26.01;38.08;100997.13;5095430;27;45485;-80
2022/07/01 05:26:25;;;;;;;;;0.00;0.00;;;;;26.37;37.17;100987.06;5096879;27;45457;-81
2022/07/01 05:28:53;;;;;;;;;1.00;1.00;;;;;26.70;36.40;100994.31;5096609;27;45542;-76
2022/07/01 05:31:18;;;;;;;;;1.50;1.00;;;;;26.94;36.47;100987.88;5094797;27;45422;-80
2022/07/01 05:33:44;;;;;;;;;0.75;0.75;;;;;27.11;35.46;100981.91;5093854;27;45423;-78
2022/07/01 05:36:10;;;;;;;;;0.50;0.50;;;;;27.36;35.09;100977.19;5080774;27;45445;-81
2022/07/01 05:38:35;;;;;;;;;1.00;1.00;;;;;27.83;34.50;100991.22;5095937;27;46174;-81
2022/07/01 05:41:01;;;;;;;;;1.00;1.00;;;;;28.03;33.91;100975.09;5096031;27;45448;-77
2022/07/01 05:43:26;;;;;;;;;1.75;1.00;;;;;28.56;33.11;100993.06;5096041;27;45452;-81
2022/07/01 05:45:52;;;;;;;;;1.00;0.00;;;;;28.96;32.56;100994.03;5093886;27;45532;-81
2022/07/01 05:48:18;;;;;;;;;0.00;0.00;;;;;28.96;31.92;100975.00;5095185;27;46585;-81
2022/07/01 05:50:43;;;;;;;;;2.00;1.00;;;;;29.38;31.01;101005.56;5097480;27;45493;-78
2022/07/01 05:53:09;;;;;;;;;0.00;0.00;;;;;29.51;31.18;100980.78;5095408;27;45387;-77
2022/07/01 05:55:41;;;;;;;;;1.00;0.50;;;;;29.74;29.93;100988.63;5093344;27;45363;-81
2022/07/01 05:58:08;;;;;;;;;0.00;0.00;;;;;29.81;29.91;100981.63;5097501;27;46744;-80
2022/07/01 06:00:34;;;;;;;;;0.00;0.00;;;;;30.02;29.52;100988.72;5105884;27;45425;-81
2022/07/01 06:02:59;;;;;;;;;0.75;0.75;;;;;30.27;29.60;100979.91;5107225;27;45399;-81
2022/07/01 06:05:24;;;;;;;;;0.00;0.00;;;;;30.70;28.83;100995.81;5095561;27;45433;-82
2022/07/01 06:07:50;;;;;;;;;1.25;1.25;;;;;30.89;27.98;100990.22;5095060;27;45341;-82
2022/07/01 06:10:15;;;;;;;;;0.00;0.00;;;;;31.15;28.19;100984.06;5094683;27;45438;-81
2022/07/01 06:12:41;;;;;;;;;0.00;0.00;;;;;31.43;27.53;101008.53;5094171;27;45403;-78
2022/07/01 06:15:11;;;;;;;;;0.25;0.25;;;;;31.46;26.97;101003.63;5089616;27;45449;-77
2022/07/01 06:17:38;;;;;;;;;0.00;0.00;;;;;31.43;27.14;100993.03;5094075;27;46542;-78
2022/07/01 06:20:04;;;;;;;;;0.00;0.00;;;;;31.55;27.34;101010.03;5088946;27;45411;-78
2022/07/01 06:22:30;;;;;;;;;0.00;0.00;;;;;31.85;26.99;101019.66;5086406;27;45583;-79
2022/07/01 06:24:55;;;;;;;;;0.00;0.00;;;;;32.03;26.67;101011.44;5076288;27;45589;-81
2022/07/01 06:27:21;;;;;;;;;0.00;0.00;;;;;32.28;25.98;101014.38;5094853;27;46164;-81
2022/07/01 06:29:46;;;;;;;;;1.00;0.00;;;;;32.50;26.36;101012.91;5096572;27;45433;-79
2022/07/01 06:32:11;;;;;;;;;2.50;0.25;;;;;32.51;26.61;101011.03;5096818;27;45399;-78
2022/07/01 06:34:38;;;;;;;;;2.00;1.00;;;;;32.63;26.14;101001.53;5094721;27;45454;-78
2022/07/01 06:37:03;;;;;;;;;1.00;1.00;;;;;32.91;25.65;101007.63;5095109;27;45417;-77
2022/07/01 06:39:29;;;;;;;;;0.00;0.00;;;;;33.23;24.79;101013.38;5091658;27;45849;-77
2022/07/01 06:41:56;;;;;;;;;0.00;0.00;;;;;33.13;25.19;101008.00;5085805;27;45602;-76
2022/07/01 06:44:21;;;;;;;;;0.50;0.00;;;;;33.41;24.34;101019.56;5085780;27;45388;-78
2022/07/01 06:46:47;;;;;;;;;0.00;0.00;;;;;33.40;24.50;101017.81;5078813;27;45308;-77
2022/07/01 06:49:12;;;;;;;;;0.50;0.50;;;;;33.41;24.28;101022.28;5082749;27;45491;-81
2022/07/01 06:51:38;;;;;;;;;0.25;0.25;;;;;33.63;24.56;101025.38;5092547;27;45461;-80
2022/07/01 06:54:04;;;;;;;;;3.00;1.00;;;;;33.64;25.14;101029.84;5094385;27;45485;-79
2022/07/01 06:56:29;;;;;;;;;0.25;0.25;;;;;33.77;24.16;101032.94;5094842;27;46494;-77
2022/07/01 06:58:55;;;;;;;;;1.50;0.00;;;;;33.75;24.00;101018.53;5094285;27;45359;-77
2022/07/01 07:01:20;;;;;;;;;0.00;0.00;;;;;33.57;23.85;101032.41;5092470;27;45380;-78
2022/07/01 07:03:45;;;;;;;;;0.00;0.00;;;;;33.40;23.21;101017.81;5094665;27;45780;-78
2022/07/01 07:06:11;;;;;;;;;0.00;0.00;;;;;33.32;23.37;101034.25;5095146;27;45434;-82
2022/07/01 07:08:36;;;;;;;;;0.00;0.00;;;;;33.25;23.52;101035.97;5093013;27;46109;-79
2022/07/01 07:11:05;;;;;;;;;0.00;0.00;;;;;33.23;22.82;101036.13;5087976;27;45464;-81
2022/07/01 07:13:30;;;;;;;;;0.50;0.00;;;;;33.35;23.02;101039.41;5086134;27;45405;-82
2022/07/01 07:15:59;;;;;;;;;0.00;0.00;;;;;33.49;22.87;101029.66;5093311;27;46084;-79
2022/07/01 07:18:25;;;;;;;;;0.00;0.00;;;;;33.44;22.63;100999.19;5105235;27;45340;-83
2022/07/01 07:20:50;;;;;;;;;0.00;0.00;;;;;33.34;22.79;100985.66;5082422;27;45589;-77
2022/07/01 07:23:16;;;;;;;;;1.00;0.00;;;;;33.40;22.13;100954.84;5079366;27;45466;-79
2022/07/01 07:25:42;;;;;;;;;0.00;0.00;;;;;33.41;22.81;100948.34;5081173;27;46601;-83
2022/07/01 07:28:07;;;;;;;;;0.00;0.00;;;;;33.46;22.01;100969.75;5081047;27;45593;-81
2022/07/01 07:30:32;;;;;;;;;0.00;0.00;;;;;33.69;22.12;101035.66;5076638;27;45497;-82
2022/07/01 07:33:01;;;;;;;;;0.00;0.00;;;;;33.70;22.67;101037.38;5089195;27;45426;-79
2022/07/01 07:35:26;;;;;;;;;0.00;0.00;;;;;33.77;22.98;101012.91;5086508;27;47301;-80
2022/07/01 07:37:54;;;;;;;;;0.00;0.00;;;;;33.90;22.37;101026.94;5080634;27;45408;-82
2022/07/01 07:40:25;;;;;;;;;0.00;0.00;;;;;33.93;22.17;101009.28;5090313;27;45657;-80
2022/07/01 07:42:54;;;;;;;;;0.00;0.00;;;;;34.18;22.75;101027.41;5075524;27;45436;-81
2022/07/01 07:45:19;;;;;;;;;1.50;0.50;;;;;34.00;22.14;101008.41;5082990;27;45535;-80
2022/07/01 07:47:48;;;;;;;;;0.00;0.00;;;;;34.20;21.95;101015.41;5083274;27;45465;-77
2022/07/01 07:50:14;;;;;;;;;0.50;0.00;;;;;33.99;22.73;101003.13;5082895;27;45538;-78
2022/07/01 07:52:40;;;;;;;;;0.00;0.00;;;;;34.00;21.68;101026.75;5087025;27;45426;-79
2022/07/01 07:55:07;;;;;;;;;0.00;0.00;;;;;34.13;21.61;101040.78;5076297;27;46302;-78
2022/07/01 07:57:33;;;;;;;;;0.00;0.00;;;;;34.23;21.13;101037.84;5085129;27;45434;-78
2022/07/01 07:59:59;;;;;;;;;0.00;0.00;;;;;34.10;22.17;101043.00;5092936;27;44842;-78
2022/07/01 08:02:25;;;;;;;;;0.00;0.00;;;;;33.82;20.95;101038.75;5085535;27;45447;-78
2022/07/01 08:04:50;;;;;;;;;0.00;0.00;;;;;33.96;20.81;101037.19;5083736;27;45682;-78
2022/07/01 08:07:15;;;;;;;;;0.25;0.25;;;;;33.96;21.28;101037.19;5083429;27;45836;-77
2022/07/01 08:09:45;;;;;;;;;0.25;0.25;;;;;33.82;21.64;101005.03;5092405;27;45577;-78
2022/07/01 08:12:11;;;;;;;;;0.00;0.00;;;;;34.06;20.72;101041.63;5081495;27;45351;-77
2022/07/01 08:14:36;;;;;;;;;0.00;0.00;;;;;34.06;20.60;101034.28;5072547;27;46233;-79
2022/07/01 08:17:02;;;;;;;;;0.00;0.00;;;;;34.16;20.85;101028.59;5078348;27;49655;-79
2022/07/01 08:19:27;;;;;;;;;0.00;0.00;;;;;34.38;21.11;101039.88;5082093;27;45428;-79
2022/07/01 08:21:52;;;;;;;;;0.75;0.00;;;;;34.19;19.89;101014.53;5092249;27;45537;-79
2022/07/01 08:24:18;;;;;;;;;1.00;0.00;;;;;34.27;20.45;101049.34;5080030;27;45585;-77
2022/07/01 08:26:44;;;;;;;;;1.00;0.00;;;;;34.38;20.64;101040.75;5084517;27;45442;-79
2022/07/01 08:29:09;;;;;;;;;0.00;0.00;;;;;34.49;20.24;101043.09;5092401;27;45520;-78
2022/07/01 08:31:34;;;;;;;;;0.00;0.00;;;;;34.65;20.30;101053.19;5079962;27;45652;-78
2022/07/01 08:34:02;;;;;;;;;0.00;0.00;;;;;34.67;20.04;101051.09;5078453;27;46760;-78
2022/07/01 08:36:27;;;;;;;;;0.00;0.00;;;;;34.57;19.93;101022.16;5083504;27;45491;-79
2022/07/01 08:38:53;;;;;;;;;2.50;0.00;;;;;34.69;20.24;101065.47;5088397;27;45541;-77
2022/07/01 08:41:19;;;;;;;;;2.50;0.00;;;;;34.62;20.04;101053.53;5087439;27;45592;-78
2022/07/01 08:43:45;;;;;;;;;0.00;0.00;;;;;34.74;20.23;101058.63;5081531;27;45409;-79
2022/07/01 08:46:10;;;;;;;;;0.00;0.00;;;;;34.68;19.80;101060.19;5082338;27;45443;-79
2022/07/01 08:48:36;;;;;;;;;0.00;0.00;;;;;34.62;20.53;101055.41;5084845;27;45338;-78
2022/07/01 08:51:03;;;;;;;;;0.00;0.00;;;;;34.88;20.29;101058.75;5083213;27;45542;-78
2022/07/01 08:53:31;;;;;;;;;0.00;0.00;;;;;34.95;19.71;101063.53;5076068;27;46513;-77
2022/07/01 08:58:41;;;;;;;;;0.50;0.00;;;;;35.01;19.34;101062.81;5084237;27;45564;-77
2022/07/01 09:01:16;;;;;;;;;0.00;0.00;;;;;34.89;20.20;101076.06;5075429;27;45513;-81
2022/07/01 09:03:46;;;;;;;;;0.00;0.00;;;;;34.22;21.19;101076.41;5075524;27;45608;-80
2022/07/01 09:06:14;;;;;;;;;0.00;0.00;;;;;34.20;20.58;101064.78;5086735;27;45493;-80
2022/07/01 09:08:40;;;;;;;;;0.00;0.00;;;;;34.50;20.36;101072.25;5084565;27;45485;-80
2022/07/01 09:11:17;;;;;;;;;1.00;1.00;;;;;34.69;20.03;101075.63;5086561;27;45553;-86
2022/07/01 09:13:43;;;;;;;;;0.00;0.00;;;;;34.42;21.11;101065.94;5092787;27;46739;-82
2022/07/01 09:16:14;;;;;;;;;0.00;0.00;;;;;34.27;21.02;101077.63;5085099;27;45471;-76
2022/07/01 09:18:58;;;;;;;;;0.00;0.00;;;;;34.43;21.20;101038.31;5081144;27;45557;-80
2022/07/01 09:21:31;;;;;;;;;0.00;0.00;;;;;34.59;20.48;101061.25;5092384;27;45429;-82
2022/07/01 09:23:58;;;;;;;;;0.00;0.00;;;;;34.12;21.17;101043.72;5095784;27;45940;-78
2022/07/01 09:26:26;;;;;;;;;0.00;0.00;;;;;34.17;20.82;101063.22;5094973;27;45918;-77
2022/07/01 09:28:56;;;;;;;;;0.00;0.00;;;;;34.37;21.24;101088.41;5093524;27;45690;-78
2022/07/01 09:31:31;;;;;;;;;1.25;0.00;;;;;34.20;21.50;101076.59;5083613;27;45446;-78
2022/07/01 09:34:07;;;;;;;;;0.00;0.00;;;;;33.56;21.54;101081.88;5080964;27;46373;-77
2022/07/01 09:36:37;;;;;;;;;0.00;0.00;;;;;33.05;22.39;101088.22;5086141;27;45458;-77
2022/07/01 09:39:04;;;;;;;;;0.00;0.00;;;;;32.57;21.97;101084.25;5080950;27;45455;-76
2022/07/01 09:41:38;;;;;;;;;1.25;0.00;;;;;32.41;22.73;101091.31;5088063;27;45680;-79
2022/07/01 09:44:08;;;;;;;;;0.00;0.00;;;;;32.59;22.83;101088.50;5093511;27;46112;-78
2022/07/01 09:46:34;;;;;;;;;0.00;0.00;;;;;32.46;22.22;101070.84;5094748;27;45453;-78
2022/07/01 09:49:00;;;;;;;;;0.00;0.00;;;;;32.00;22.55;101081.94;5089154;27;45356;-79
2022/07/01 09:51:26;;;;;;;;;1.00;0.00;;;;;32.26;22.31;101092.06;5089344;27;45505;-78
2022/07/01 09:53:52;;;;;;;;;0.75;0.00;;;;;32.78;22.34;101085.72;5080031;27;45482;-79
2022/07/01 09:56:19;;;;;;;;;0.75;0.00;;;;;33.11;22.44;101082.09;5105977;27;45577;-79
2022/07/01 09:58:44;;;;;;;;;0.00;0.00;;;;;32.97;22.16;101090.94;5101935;27;45478;-77
2022/07/01 10:01:11;;;;;;;;;0.00;0.00;;;;;33.52;22.79;101088.72;5090037;27;45593;-79
2022/07/01 10:03:39;;;;;;;;;0.00;0.00;;;;;33.85;21.42;101081.41;5084942;27;46809;-79
2022/07/01 10:06:07;;;;;;;;;0.00;0.00;;;;;34.09;21.83;101094.25;5087200;27;45382;-79
2022/07/01 10:09:09;;;;;;;;;0.00;0.00;;;;;34.24;21.95;101088.94;5085581;27;45402;-79
2022/07/01 10:12:07;;;;;;;;;0.00;0.00;;;;;34.72;21.64;101088.97;5086779;27;45521;-80
2022/07/01 10:14:37;;;;;;;;;0.00;0.00;;;;;34.53;21.42;101082.03;5083433;27;45568;-79
2022/07/01 10:17:03;;;;;;;;;0.00;0.00;;;;;34.48;20.66;101085.31;5085833;27;45497;-81
2022/07/01 10:19:30;;;;;;;;;1.00;0.00;;;;;34.52;20.86;101091.28;5088179;27;45448;-77
2022/07/01 10:22:00;;;;;;;;;1.50;0.00;;;;;33.78;21.05;101088.59;5081499;27;45566;-79
2022/07/01 10:24:26;;;;;;;;;1.00;0.00;;;;;33.07;21.76;101085.31;5076949;27;46276;-78
2022/07/01 10:26:58;;;;;;;;;0.00;0.00;;;;;32.39;21.91;101092.50;5073970;27;45360;-78
2022/07/01 10:29:39;;;;;;;;;0.00;0.00;;;;;32.31;22.36;101101.53;5085172;27;45492;-78
2022/07/01 10:32:15;;;;;;;;;0.00;0.00;;;;;32.54;22.82;101093.63;5098165;27;45417;-82
2022/07/01 10:34:43;;;;;;;;;1.00;0.00;;;;;33.11;21.93;101093.03;5081182;27;46548;-82
2022/07/01 10:37:11;;;;;;;;;0.00;0.00;;;;;33.44;22.06;101086.84;5079384;27;45475;-82
2022/07/01 10:39:57;;;;;;;;;1.00;0.00;;;;;32.74;23.11;101088.78;5080416;27;45347;-79
2022/07/01 10:42:36;;;;;;;;;1.75;0.75;;;;;32.23;23.43;101095.97;5085472;27;45447;-82
2022/07/01 10:45:05;;;;;;;;;0.75;0.75;;;;;32.32;23.85;101086.81;5078899;27;46690;-79
2022/07/01 10:47:30;;;;;;;;;0.00;0.00;;;;;31.90;23.00;101095.69;5085167;27;45607;-81
2022/07/01 10:50:03;;;;;;;;;0.00;0.00;;;;;32.32;22.50;101097.75;5077389;27;45419;-77
2022/07/01 10:52:29;;;;;;;;;0.00;0.00;;;;;32.68;21.92;101097.66;5092005;27;45446;-79
2022/07/01 10:55:00;;;;;;;;;0.00;0.00;;;;;33.00;21.34;101095.25;5087686;27;46131;-80
2022/07/01 10:57:27;;;;;;;;;0.00;0.00;;;;;32.91;21.35;101091.59;5092417;27;45675;-84
2022/07/01 10:59:53;;;;;;;;;0.00;0.00;;;;;32.46;22.51;101087.25;5081595;27;45370;-84
2022/07/01 11:02:21;;;;;;;;;0.00;0.00;;;;;31.93;23.21;101100.88;5084085;27;45657;-84
2022/07/01 11:04:50;;;;;;;;;0.00;0.00;;;;;31.09;24.03;101063.81;5083198;27;46451;-80
2022/07/01 11:27:26;;;;;;;;;0.00;0.00;;;;;29.73;26.04;101074.03;5076356;27;45487;-78
2022/07/01 11:29:57;;;;;;;;;0.00;0.00;;;;;30.39;24.86;101096.94;5091097;27;45506;-79
2022/07/01 11:32:31;;;;;;;;;0.00;0.00;;;;;30.28;24.67;101089.78;5081989;27;45470;-84
2022/07/01 11:34:56;;;;;;;;;0.00;0.00;;;;;30.32;24.74;101093.91;5090458;27;45550;-84
2022/07/01 11:40:14;;;;;;;;;0.75;0.00;;;;;31.44;23.66;101078.50;5086485;27;45439;-88
2022/07/01 11:42:41;;;;;;;;;0.00;0.00;;;;;31.57;25.38;101083.59;5082423;27;45423;-84
2022/07/01 11:45:06;;;;;;;;;0.00;0.00;;;;;31.51;23.57;101065.97;5092967;27;45437;-85
2022/07/01 11:47:32;;;;;;;;;0.00;0.00;;;;;31.70;22.84;101090.41;5085162;27;45264;-81
2022/07/01 11:49:59;;;;;;;;;0.00;0.00;;;;;31.52;23.02;101090.38;5101794;27;45512;-81
2022/07/01 11:52:25;;;;;;;;;0.75;0.75;;;;;31.30;23.68;101083.50;5100461;27;45502;-82
2022/07/01 11:54:59;;;;;;;;;0.00;0.00;;;;;30.85;23.78;101092.47;5107223;27;44875;-83
2022/07/01 11:57:29;;;;;;;;;0.00;0.00;;;;;30.39;24.14;101096.94;5087864;27;45359;-83